createdAt,value
2015-10-17T00:00:10.354Z,8
2015-10-17T00:01:10.278Z,8
2015-10-17T00:02:10.234Z,7.9
2015-10-17T00:03:10.191Z,7.9
2015-10-17T00:04:10.130Z,7.8
2015-10-17T00:05:10.071Z,7.8
2015-10-17T00:06:10.027Z,7.8
2015-10-17T00:07:09.967Z,7.8
2015-10-17T00:08:09.905Z,7.8
2015-10-17T00:09:09.861Z,7.9
2015-10-17T00:10:09.800Z,7.9
2015-10-17T00:11:09.756Z,7.9
2015-10-17T00:12:09.696Z,7.9
2015-10-17T00:13:09.636Z,7.8
2015-10-17T00:14:09.577Z,7.7
2015-10-17T00:15:09.532Z,7.7
2015-10-17T00:16:09.505Z,7.7
2015-10-17T00:17:09.430Z,7.6
2015-10-17T00:18:09.369Z,7.6
2015-10-17T00:19:09.309Z,7.6
2015-10-17T00:20:09.265Z,7.6
2015-10-17T00:21:09.206Z,7.6
2015-10-17T00:22:09.145Z,7.6
2015-10-17T00:23:09.085Z,7.6
2015-10-17T00:24:09.041Z,7.6
2015-10-17T00:25:08.982Z,7.6
2015-10-17T00:26:08.922Z,7.6
2015-10-17T00:27:08.879Z,7.6
2015-10-17T00:28:08.818Z,7.5
2015-10-17T00:29:08.778Z,7.6
2015-10-17T00:30:08.719Z,7.6
2015-10-17T00:31:08.658Z,7.6
2015-10-17T00:32:08.599Z,7.7
2015-10-17T00:33:08.555Z,7.8
2015-10-17T00:34:08.494Z,7.7
2015-10-17T00:35:08.435Z,7.7
2015-10-17T00:36:08.391Z,7.8
2015-10-17T00:37:08.330Z,7.7
2015-10-17T00:38:08.272Z,7.7
2015-10-17T00:39:08.227Z,7.7
2015-10-17T00:40:08.167Z,7.7
2015-10-17T00:41:08.124Z,7.8
2015-10-17T00:42:08.063Z,7.8
2015-10-17T00:43:08.004Z,7.9
2015-10-17T00:44:07.959Z,7.9
2015-10-17T00:45:07.899Z,7.9
2015-10-17T00:46:07.840Z,7.9
2015-10-17T00:47:07.796Z,7.8
2015-10-17T00:48:07.735Z,7.7
2015-10-17T00:49:07.676Z,7.7
2015-10-17T00:50:07.632Z,7.7
2015-10-17T00:51:07.572Z,7.7
2015-10-17T00:52:07.528Z,7.8
2015-10-17T00:53:07.468Z,7.8
2015-10-17T00:54:07.409Z,7.8
2015-10-17T00:55:07.365Z,7.8
2015-10-17T00:56:07.321Z,7.8
2015-10-17T00:57:07.260Z,7.9
2015-10-17T00:58:07.201Z,7.8
2015-10-17T00:59:07.140Z,7.9
2015-10-17T01:00:07.096Z,7.8
2015-10-17T01:01:07.037Z,7.9
2015-10-17T01:02:06.992Z,7.9
2015-10-17T01:03:06.933Z,7.8
2015-10-17T01:04:06.873Z,7.9
2015-10-17T01:05:06.829Z,7.9
2015-10-17T01:06:06.770Z,7.8
2015-10-17T01:07:06.709Z,7.8
2015-10-17T01:08:06.665Z,7.9
2015-10-17T01:09:06.620Z,7.9
2015-10-17T01:10:06.545Z,7.9
2015-10-17T01:11:06.502Z,7.9
2015-10-17T01:12:06.442Z,7.9
2015-10-17T01:13:06.397Z,7.9
2015-10-17T01:14:06.354Z,7.9
2015-10-17T01:15:06.294Z,8
2015-10-17T01:16:06.234Z,7.9
2015-10-17T01:17:06.174Z,7.9
2015-10-17T01:18:06.130Z,8
2015-10-17T01:19:06.070Z,8
2015-10-17T01:20:06.011Z,8
2015-10-17T01:21:05.966Z,8
2015-10-17T01:22:05.906Z,8
2015-10-17T01:23:05.847Z,7.9
2015-10-17T01:24:05.802Z,8
2015-10-17T01:25:05.743Z,7.9
2015-10-17T01:26:05.699Z,7.8
2015-10-17T01:27:05.621Z,7.8
2015-10-17T01:28:05.592Z,7.8
2015-10-17T01:29:05.532Z,7.9
2015-10-17T01:30:05.458Z,7.9
2015-10-17T01:31:05.400Z,8
2015-10-17T01:32:05.326Z,8
2015-10-17T01:33:05.269Z,7.9
2015-10-17T01:34:05.195Z,7.8
2015-10-17T01:35:05.161Z,7.8
2015-10-17T01:36:05.081Z,7.8
2015-10-17T01:37:05.017Z,7.7
2015-10-17T01:38:04.967Z,7.7
2015-10-17T01:39:04.902Z,7.8
2015-10-17T01:40:04.841Z,7.9
2015-10-17T01:41:04.780Z,8
2015-10-17T01:42:04.733Z,8
2015-10-17T01:43:04.673Z,7.9
2015-10-17T01:44:04.627Z,7.9
2015-10-17T01:45:04.567Z,7.9
2015-10-17T01:46:04.506Z,7.9
2015-10-17T01:47:04.461Z,7.9
2015-10-17T01:48:04.401Z,8
2015-10-17T01:49:04.339Z,7.9
2015-10-17T01:50:04.312Z,7.9
2015-10-17T01:51:04.236Z,7.9
2015-10-17T01:52:04.192Z,7.9
2015-10-17T01:53:04.132Z,7.9
2015-10-17T01:54:04.088Z,7.9
2015-10-17T01:55:04.028Z,7.8
2015-10-17T01:56:03.968Z,7.7
2015-10-17T01:57:03.925Z,7.7
2015-10-17T01:58:03.880Z,7.7
2015-10-17T01:59:03.805Z,7.7
2015-10-17T02:00:03.760Z,7.7
2015-10-17T02:01:03.700Z,7.7
2015-10-17T02:02:03.656Z,7.8
2015-10-17T02:03:03.613Z,7.9
2015-10-17T02:04:03.552Z,7.8
2015-10-17T02:05:03.493Z,7.8
2015-10-17T02:06:03.448Z,7.8
2015-10-17T02:07:03.373Z,7.9
2015-10-17T02:08:03.329Z,7.9
2015-10-17T02:09:03.268Z,8
2015-10-17T02:10:03.209Z,7.9
2015-10-17T02:11:03.165Z,7.9
2015-10-17T02:12:03.105Z,7.8
2015-10-17T02:13:03.060Z,7.8
2015-10-17T02:14:03.018Z,7.8
2015-10-17T02:15:02.941Z,7.8
2015-10-17T02:16:02.897Z,7.8
2015-10-17T02:17:02.838Z,7.9
2015-10-17T02:18:02.794Z,7.9
2015-10-17T02:19:02.734Z,7.9
2015-10-17T02:20:02.673Z,7.9
2015-10-17T02:21:02.629Z,7.9
2015-10-17T02:22:02.585Z,7.9
2015-10-17T02:23:02.542Z,7.9
2015-10-17T02:24:02.482Z,7.9
2015-10-17T02:25:02.423Z,7.9
2015-10-17T02:26:02.362Z,7.9
2015-10-17T02:27:02.303Z,7.9
2015-10-17T02:28:02.274Z,7.9
2015-10-17T02:29:02.198Z,7.9
2015-10-17T02:30:02.139Z,7.9
2015-10-17T02:31:02.095Z,7.9
2015-10-17T02:32:02.050Z,7.8
2015-10-17T02:33:02.006Z,7.8
2015-10-17T02:34:01.931Z,7.7
2015-10-17T02:35:01.887Z,7.7
2015-10-17T02:36:01.827Z,7.6
2015-10-17T02:37:01.814Z,7.6
2015-10-17T02:38:01.722Z,7.6
2015-10-17T02:39:01.664Z,7.6
2015-10-17T02:40:01.619Z,7.6
2015-10-17T02:41:01.559Z,7.7
2015-10-17T02:42:01.500Z,7.7
2015-10-17T02:43:01.440Z,7.8
2015-10-17T02:44:01.427Z,7.8
2015-10-17T02:45:01.351Z,7.8
2015-10-17T02:46:01.292Z,7.7
2015-10-17T02:47:01.232Z,7.7
2015-10-17T02:48:01.172Z,7.6
2015-10-17T02:49:01.128Z,7.6
2015-10-17T02:50:01.068Z,7.6
2015-10-17T02:51:01.024Z,7.6
2015-10-17T02:52:00.964Z,7.6
2015-10-17T02:53:00.904Z,7.5
2015-10-17T02:54:00.844Z,7.5
2015-10-17T02:55:00.800Z,7.5
2015-10-17T02:56:00.740Z,7.5
2015-10-17T02:57:00.696Z,7.5
2015-10-17T02:58:00.652Z,7.5
2015-10-17T02:59:00.577Z,7.4
2015-10-17T03:00:00.532Z,7.4
2015-10-17T03:01:00.473Z,7.4
2015-10-17T03:02:00.413Z,7.4
2015-10-17T03:03:00.368Z,7.4
2015-10-17T03:04:00.294Z,7.4
2015-10-17T03:05:00.265Z,7.4
2015-10-17T03:06:00.205Z,7.4
2015-10-17T03:07:00.176Z,7.5
2015-10-17T03:08:00.082Z,7.5
2015-10-17T03:09:00.039Z,7.5
2015-10-17T03:09:59.979Z,7.5
2015-10-17T03:10:59.920Z,7.6
2015-10-17T03:11:59.876Z,7.6
2015-10-17T03:12:59.815Z,7.7
2015-10-17T03:13:59.771Z,7.7
2015-10-17T03:14:59.711Z,7.7
2015-10-17T03:15:59.668Z,7.7
2015-10-17T03:16:59.607Z,7.6
2015-10-17T03:17:59.548Z,7.6
2015-10-17T03:18:59.504Z,7.6
2015-10-17T03:19:59.444Z,7.6
2015-10-17T03:20:59.399Z,7.6
2015-10-17T03:21:59.324Z,7.6
2015-10-17T03:22:59.264Z,7.6
2015-10-17T03:23:59.220Z,7.6
2015-10-17T03:24:59.161Z,7.5
2015-10-17T03:25:59.100Z,7.5
2015-10-17T03:26:59.056Z,7.5
2015-10-17T03:27:58.996Z,7.5
2015-10-17T03:28:58.952Z,7.4
2015-10-17T03:29:58.908Z,7.5
2015-10-17T03:30:58.833Z,7.5
2015-10-17T03:31:58.788Z,7.6
2015-10-17T03:32:58.729Z,7.6
2015-10-17T03:33:58.685Z,7.5
2015-10-17T03:34:58.625Z,7.6
2015-10-17T03:35:58.566Z,7.7
2015-10-17T03:36:58.521Z,7.7
2015-10-17T03:37:58.461Z,7.7
2015-10-17T03:38:58.401Z,7.6
2015-10-17T03:39:58.357Z,7.6
2015-10-17T03:40:58.297Z,7.5
2015-10-17T03:41:58.237Z,7.5
2015-10-17T03:42:58.194Z,7.6
2015-10-17T03:43:58.165Z,7.5
2015-10-17T03:44:58.074Z,7.5
2015-10-17T03:45:58.030Z,7.5
2015-10-17T03:46:57.971Z,7.6
2015-10-17T03:47:57.910Z,7.6
2015-10-17T03:48:57.866Z,7.6
2015-10-17T03:49:57.807Z,7.7
2015-10-17T03:50:57.762Z,7.7
2015-10-17T03:51:57.702Z,7.7
2015-10-17T03:52:57.642Z,7.7
2015-10-17T03:53:57.598Z,7.7
2015-10-17T03:54:57.539Z,7.6
2015-10-17T03:55:57.495Z,7.6
2015-10-17T03:56:57.434Z,7.6
2015-10-17T03:57:57.375Z,7.5
2015-10-17T03:58:57.346Z,7.4
2015-10-17T03:59:57.270Z,7.4
2015-10-17T04:00:57.227Z,7.4
2015-10-17T04:01:57.167Z,7.4
2015-10-17T04:02:57.123Z,7.4
2015-10-17T04:03:57.063Z,7.4
2015-10-17T04:04:57.003Z,7.4
2015-10-17T04:05:56.976Z,7.4
2015-10-17T04:06:56.900Z,7.3
2015-10-17T04:07:56.824Z,7.3
2015-10-17T04:08:57.186Z,7.2
2015-10-17T04:09:56.736Z,7.2
2015-10-17T04:10:56.708Z,7.2
2015-10-17T04:11:56.631Z,7.2
2015-10-17T04:12:56.604Z,7.2
2015-10-17T04:13:56.497Z,7.2
2015-10-17T04:14:56.452Z,7.3
2015-10-17T04:15:56.392Z,7.3
2015-10-17T04:16:56.333Z,7.3
2015-10-17T04:17:56.289Z,7.5
2015-10-17T04:18:56.229Z,7.5
2015-10-17T04:19:56.169Z,7.5
2015-10-17T04:20:56.125Z,7.5
2015-10-17T04:21:56.080Z,7.6
2015-10-17T04:22:56.006Z,7.5
2015-10-17T04:23:55.961Z,7.5
2015-10-17T04:24:55.933Z,7.4
2015-10-17T04:25:55.842Z,7.4
2015-10-17T04:26:55.813Z,7.4
2015-10-17T04:27:55.738Z,7.4
2015-10-17T04:28:55.693Z,7.4
2015-10-17T04:29:55.634Z,7.5
2015-10-17T04:30:55.590Z,7.5
2015-10-17T04:31:55.530Z,7.6
2015-10-17T04:32:55.470Z,7.6
2015-10-17T04:33:55.438Z,7.5
2015-10-17T04:34:55.379Z,7.5
2015-10-17T04:35:55.319Z,7.5
2015-10-17T04:36:55.243Z,7.5
2015-10-17T04:37:55.199Z,7.4
2015-10-17T04:38:55.156Z,7.4
2015-10-17T04:39:55.095Z,7.3
2015-10-17T04:40:55.052Z,7.2
2015-10-17T04:41:54.976Z,7.2
2015-10-17T04:42:54.917Z,7.2
2015-10-17T04:43:54.873Z,7.2
2015-10-17T04:44:54.843Z,7.2
2015-10-17T04:45:54.753Z,7.2
2015-10-17T04:46:54.756Z,7.2
2015-10-17T04:47:54.648Z,7.2
2015-10-17T04:48:54.589Z,7.2
2015-10-17T04:49:54.529Z,7.2
2015-10-17T04:50:54.485Z,7.2
2015-10-17T04:51:54.425Z,7.2
2015-10-17T04:52:54.381Z,7.2
2015-10-17T04:53:54.322Z,7.3
2015-10-17T04:54:54.278Z,7.4
2015-10-17T04:55:54.202Z,7.4
2015-10-17T04:56:54.158Z,7.4
2015-10-17T04:57:54.098Z,7.4
2015-10-17T04:58:54.053Z,7.3
2015-10-17T04:59:53.994Z,7.4
2015-10-17T05:00:54.278Z,7.3
2015-10-17T05:02:02.202Z,7.4
2015-10-17T05:02:53.861Z,7.4
2015-10-17T05:04:54.352Z,7.4
2015-10-17T05:06:56.169Z,7.5
2015-10-17T05:08:54.331Z,7.5
2015-10-17T05:09:57.491Z,7.5
2015-10-17T05:10:53.430Z,7.5
2015-10-17T05:12:57.264Z,7.5
2015-10-17T05:14:53.222Z,7.6
2015-10-17T05:16:53.134Z,7.6
2015-10-17T05:17:54.277Z,7.6
2015-10-17T05:20:52.910Z,7.5
2015-10-17T05:21:52.866Z,7.5
2015-10-17T05:22:52.807Z,7.5
2015-10-17T05:23:52.793Z,7.4
2015-10-17T05:24:52.702Z,7.3
2015-10-17T05:25:52.643Z,7.4
2015-10-17T05:26:52.599Z,7.4
2015-10-17T05:27:52.540Z,7.5
2015-10-17T05:28:52.480Z,7.5
2015-10-17T05:29:52.419Z,7.5
2015-10-17T05:30:52.360Z,7.6
2015-10-17T05:31:52.331Z,7.6
2015-10-17T05:32:52.271Z,7.5
2015-10-17T05:33:52.212Z,7.4
2015-10-17T05:34:52.168Z,7.5
2015-10-17T05:35:52.107Z,7.5
2015-10-17T05:36:52.064Z,7.6
2015-10-17T05:37:52.003Z,7.6
2015-10-17T05:38:51.929Z,7.7
2015-10-17T05:39:51.900Z,7.7
2015-10-17T05:40:51.840Z,7.7
2015-10-17T05:41:51.781Z,7.7
2015-10-17T05:42:51.737Z,7.7
2015-10-17T05:43:51.676Z,7.7
2015-10-17T05:44:51.617Z,7.7
2015-10-17T05:45:51.557Z,7.7
2015-10-17T05:46:51.528Z,7.7
2015-10-17T05:47:51.453Z,7.6
2015-10-17T05:48:51.409Z,7.5
2015-10-17T05:49:51.349Z,7.4
2015-10-17T05:50:51.289Z,7.5
2015-10-17T05:51:51.242Z,7.6
2015-10-17T05:52:51.182Z,7.6
2015-10-17T05:53:51.123Z,7.7
2015-10-17T05:54:51.078Z,7.7
2015-10-17T05:55:51.019Z,7.7
2015-10-17T05:56:50.958Z,7.7
2015-10-17T05:57:50.915Z,7.7
2015-10-17T05:58:50.917Z,7.7
2015-10-17T05:59:50.810Z,7.6
2015-10-17T06:00:50.969Z,7.6
2015-10-17T06:01:50.691Z,7.7
2015-10-17T06:02:50.631Z,7.8
2015-10-17T06:03:50.587Z,7.7
2015-10-17T06:04:50.543Z,7.7
2015-10-17T06:05:50.483Z,7.7
2015-10-17T06:06:50.439Z,7.8
2015-10-17T06:07:50.379Z,7.8
2015-10-17T06:08:50.319Z,7.7
2015-10-17T06:09:50.276Z,7.8
2015-10-17T06:10:50.216Z,7.6
2015-10-17T06:11:50.156Z,7.5
2015-10-17T06:12:50.112Z,7.5
2015-10-17T06:13:50.052Z,7.5
2015-10-17T06:14:49.993Z,7.6
2015-10-17T06:15:49.932Z,7.6
2015-10-17T06:16:49.888Z,7.7
2015-10-17T06:17:49.829Z,7.7
2015-10-17T06:18:49.784Z,7.7
2015-10-17T06:19:49.881Z,7.6
2015-10-17T06:20:49.665Z,7.5
2015-10-17T06:21:49.604Z,7.5
2015-10-17T06:22:49.561Z,7.5
2015-10-17T06:23:49.517Z,7.5
2015-10-17T06:24:49.488Z,7.5
2015-10-17T06:25:49.413Z,7.6
2015-10-17T06:26:49.493Z,7.6
2015-10-17T06:27:49.293Z,7.6
2015-10-17T06:28:49.249Z,7.7
2015-10-17T06:29:49.173Z,7.7
2015-10-17T06:30:49.129Z,7.6
2015-10-17T06:31:49.086Z,7.6
2015-10-17T06:32:49.057Z,7.7
2015-10-17T06:33:49.028Z,7.7
2015-10-17T06:34:48.922Z,7.6
2015-10-17T06:35:48.863Z,7.5
2015-10-17T06:36:48.803Z,7.5
2015-10-17T06:37:48.774Z,7.4
2015-10-17T06:38:48.699Z,7.3
2015-10-17T06:39:48.654Z,7.3
2015-10-17T06:40:48.580Z,7.3
2015-10-17T06:41:48.535Z,7.3
2015-10-17T06:42:48.538Z,7.4
2015-10-17T06:43:48.432Z,7.4
2015-10-17T06:44:48.387Z,7.3
2015-10-17T06:45:48.328Z,7.3
2015-10-17T06:46:48.268Z,7.3
2015-10-17T06:47:48.208Z,7.4
2015-10-17T06:48:48.164Z,7.3
2015-10-17T06:49:48.104Z,7.4
2015-10-17T06:50:48.045Z,7.4
2015-10-17T06:51:48.001Z,7.5
2015-10-17T06:52:47.941Z,7.4
2015-10-17T06:53:47.880Z,7.4
2015-10-17T06:54:47.836Z,7.4
2015-10-17T06:55:47.792Z,7.3
2015-10-17T06:56:47.733Z,7.3
2015-10-17T06:57:47.673Z,7.3
2015-10-17T06:58:47.613Z,7.3
2015-10-17T06:59:47.631Z,7.3
2015-10-17T07:00:47.509Z,7.4
2015-10-17T07:01:47.465Z,7.4
2015-10-17T07:02:47.405Z,7.4
2015-10-17T07:03:47.345Z,7.4
2015-10-17T07:04:47.286Z,7.4
2015-10-17T07:05:47.241Z,7.4
2015-10-17T07:06:47.210Z,7.5
2015-10-17T07:07:47.136Z,7.6
2015-10-17T07:08:47.091Z,7.6
2015-10-17T07:09:47.046Z,7.6
2015-10-17T07:10:46.971Z,7.6
2015-10-17T07:11:46.911Z,7.5
2015-10-17T07:12:46.852Z,7.5
2015-10-17T07:13:46.807Z,7.4
2015-10-17T07:14:46.748Z,7.4
2015-10-17T07:15:46.688Z,7.5
2015-10-17T07:16:46.644Z,7.5
2015-10-17T07:17:46.584Z,7.6
2015-10-17T07:18:46.540Z,7.6
2015-10-17T07:19:46.527Z,7.5
2015-10-17T07:20:46.421Z,7.5
2015-10-17T07:21:46.360Z,7.6
2015-10-17T07:22:46.316Z,7.5
2015-10-17T07:23:46.257Z,7.5
2015-10-17T07:24:46.213Z,7.4
2015-10-17T07:25:46.152Z,7.4
2015-10-17T07:26:46.093Z,7.4
2015-10-17T07:27:46.032Z,7.4
2015-10-17T07:28:46.004Z,7.3
2015-10-17T07:29:45.929Z,7.3
2015-10-17T07:30:45.884Z,7.3
2015-10-17T07:31:45.825Z,7.3
2015-10-17T07:32:45.766Z,7.4
2015-10-17T07:33:45.721Z,7.4
2015-10-17T07:34:45.662Z,7.3
2015-10-17T07:35:45.634Z,7.3
2015-10-17T07:36:45.557Z,7.4
2015-10-17T07:37:45.513Z,7.3
2015-10-17T07:38:45.454Z,7.3
2015-10-17T07:39:45.409Z,7.4
2015-10-17T07:40:45.334Z,7.4
2015-10-17T07:41:45.321Z,7.3
2015-10-17T07:42:45.245Z,7.3
2015-10-17T07:43:45.170Z,7.4
2015-10-17T07:44:45.111Z,7.4
2015-10-17T07:45:45.067Z,7.4
2015-10-17T07:46:45.006Z,7.4
2015-10-17T07:47:44.962Z,7.4
2015-10-17T07:48:44.919Z,7.4
2015-10-17T07:49:44.859Z,7.4
2015-10-17T07:50:44.783Z,7.4
2015-10-17T07:51:44.739Z,7.4
2015-10-17T07:52:44.680Z,7.5
2015-10-17T07:53:44.619Z,7.5
2015-10-17T07:54:44.592Z,7.5
2015-10-17T07:55:44.515Z,7.5
2015-10-17T07:56:44.472Z,7.5
2015-10-17T07:57:44.411Z,7.5
2015-10-17T07:58:44.367Z,7.5
2015-10-17T07:59:44.291Z,7.5
2015-10-17T08:00:44.247Z,7.5
2015-10-17T08:01:44.188Z,7.5
2015-10-17T08:02:44.175Z,7.5
2015-10-17T08:03:44.085Z,7.5
2015-10-17T08:04:44.024Z,7.5
2015-10-17T08:05:43.980Z,7.4
2015-10-17T08:06:43.905Z,7.4
2015-10-17T08:07:43.861Z,7.4
2015-10-17T08:08:43.817Z,7.4
2015-10-17T08:09:43.757Z,7.4
2015-10-17T08:10:43.697Z,7.5
2015-10-17T08:11:43.638Z,7.5
2015-10-17T08:12:43.577Z,7.6
2015-10-17T08:13:43.518Z,7.6
2015-10-17T08:14:43.474Z,7.6
2015-10-17T08:15:43.411Z,7.6
2015-10-17T08:16:43.382Z,7.7
2015-10-17T08:17:43.307Z,7.7
2015-10-17T08:18:43.293Z,7.6
2015-10-17T08:19:43.203Z,7.6
2015-10-17T08:20:43.143Z,7.6
2015-10-17T08:21:43.084Z,7.6
2015-10-17T08:22:43.023Z,7.6
2015-10-17T08:23:42.979Z,7.6
2015-10-17T08:24:42.920Z,7.7
2015-10-17T08:25:42.859Z,7.7
2015-10-17T08:26:42.801Z,7.7
2015-10-17T08:27:42.740Z,7.6
2015-10-17T08:28:42.695Z,7.7
2015-10-17T08:29:42.653Z,7.7
2015-10-17T08:30:42.592Z,7.7
2015-10-17T08:31:42.533Z,7.7
2015-10-17T08:32:42.472Z,7.7
2015-10-17T08:33:42.428Z,7.6
2015-10-17T08:34:42.369Z,7.6
2015-10-17T08:35:42.309Z,7.6
2015-10-17T08:36:42.250Z,7.6
2015-10-17T08:37:42.205Z,7.6
2015-10-17T08:38:42.145Z,7.7
2015-10-17T08:39:42.086Z,7.7
2015-10-17T08:40:42.042Z,7.6
2015-10-17T08:41:41.981Z,7.6
2015-10-17T08:42:41.922Z,7.6
2015-10-17T08:43:41.861Z,7.6
2015-10-17T08:44:41.819Z,7.6
2015-10-17T08:45:41.758Z,7.7
2015-10-17T08:46:41.714Z,7.7
2015-10-17T08:47:41.654Z,7.7
2015-10-17T08:48:41.594Z,7.7
2015-10-17T08:49:41.550Z,7.8
2015-10-17T08:50:41.491Z,7.9
2015-10-17T08:51:41.446Z,7.8
2015-10-17T08:52:41.387Z,7.8
2015-10-17T08:53:41.327Z,7.8
2015-10-17T08:54:41.266Z,7.8
2015-10-17T08:55:41.223Z,7.9
2015-10-17T08:56:41.163Z,7.9
2015-10-17T08:57:41.103Z,7.9
2015-10-17T08:58:41.059Z,7.9
2015-10-17T08:59:40.999Z,7.9
2015-10-17T09:00:40.955Z,7.9
2015-10-17T09:01:40.896Z,7.9
2015-10-17T09:02:40.835Z,8
2015-10-17T09:03:40.791Z,8
2015-10-17T09:04:40.732Z,8
2015-10-17T09:05:40.671Z,8
2015-10-17T09:06:40.629Z,8
2015-10-17T09:07:40.568Z,8
2015-10-17T09:08:40.524Z,7.9
2015-10-17T09:09:40.465Z,8
2015-10-17T09:10:40.404Z,7.9
2015-10-17T09:11:40.360Z,7.9
2015-10-17T09:12:40.301Z,7.9
2015-10-17T09:13:40.256Z,7.9
2015-10-17T09:14:40.196Z,7.8
2015-10-17T09:15:40.137Z,7.9
2015-10-17T09:16:40.076Z,7.9
2015-10-17T09:17:40.033Z,7.9
2015-10-17T09:18:39.989Z,8
2015-10-17T09:19:39.929Z,8
2015-10-17T09:20:39.869Z,8
2015-10-17T09:21:39.825Z,8
2015-10-17T09:22:39.765Z,8
2015-10-17T09:23:39.706Z,8.1
2015-10-17T09:24:39.645Z,8.1
2015-10-17T09:25:39.617Z,8
2015-10-17T09:26:39.557Z,8
2015-10-17T09:27:39.498Z,8
2015-10-17T09:28:39.438Z,8
2015-10-17T09:29:39.378Z,8
2015-10-17T09:30:39.334Z,8
2015-10-17T09:31:39.289Z,8
2015-10-17T09:32:39.214Z,8
2015-10-17T09:33:39.170Z,8
2015-10-17T09:34:39.111Z,8
2015-10-17T09:35:39.067Z,8.1
2015-10-17T09:36:39.020Z,8.1
2015-10-17T09:37:38.945Z,8.1
2015-10-17T09:38:38.901Z,8.1
2015-10-17T09:39:38.841Z,8.2
2015-10-17T09:40:38.798Z,8.1
2015-10-17T09:41:38.737Z,8.2
2015-10-17T09:42:38.678Z,8.2
2015-10-17T09:43:38.633Z,8.2
2015-10-17T09:44:38.573Z,8.2
2015-10-17T09:45:38.514Z,8.2
2015-10-17T09:46:38.469Z,8.1
2015-10-17T09:47:38.409Z,8.2
2015-10-17T09:48:38.365Z,8.2
2015-10-17T09:49:38.305Z,8.2
2015-10-17T09:50:38.245Z,8.2
2015-10-17T09:51:38.186Z,8.3
2015-10-17T09:52:38.142Z,8.2
2015-10-17T09:53:38.082Z,8.2
2015-10-17T09:54:38.038Z,8.1
2015-10-17T09:55:37.978Z,8.1
2015-10-17T09:56:37.933Z,8.1
2015-10-17T09:57:37.879Z,8.2
2015-10-17T09:58:37.819Z,8.3
2015-10-17T09:59:37.775Z,8.3
2015-10-17T10:00:37.715Z,8.3
2015-10-17T10:01:37.655Z,8.3
2015-10-17T10:02:37.611Z,8.3
2015-10-17T10:03:37.552Z,8.4
2015-10-17T10:04:37.491Z,8.4
2015-10-17T10:05:37.432Z,8.4
2015-10-17T10:06:37.388Z,8.3
2015-10-17T10:07:37.329Z,8.2
2015-10-17T10:08:37.284Z,8.3
2015-10-17T10:09:37.224Z,8.3
2015-10-17T10:10:37.164Z,8.2
2015-10-17T10:11:37.120Z,8.2
2015-10-17T10:12:37.060Z,8.2
2015-10-17T10:13:37.016Z,8.3
2015-10-17T10:14:36.957Z,8.3
2015-10-17T10:15:37.240Z,8.3
2015-10-17T10:16:36.853Z,8.3
2015-10-17T10:17:36.809Z,8.2
2015-10-17T10:18:36.748Z,8.2
2015-10-17T10:19:36.689Z,8.3
2015-10-17T10:20:36.629Z,8.3
2015-10-17T10:21:36.585Z,8.3
2015-10-17T10:22:36.526Z,8.3
2015-10-17T10:23:36.481Z,8.4
2015-10-17T10:24:36.421Z,8.4
2015-10-17T10:25:36.362Z,8.4
2015-10-17T10:26:36.333Z,8.4
2015-10-17T10:27:36.257Z,8.4
2015-10-17T10:28:36.214Z,8.4
2015-10-17T10:29:36.153Z,8.4
2015-10-17T10:30:36.094Z,8.4
2015-10-17T10:31:36.049Z,8.4
2015-10-17T10:32:35.989Z,8.4
2015-10-17T10:33:35.945Z,8.4
2015-10-17T10:34:35.885Z,8.4
2015-10-17T10:35:35.811Z,8.4
2015-10-17T10:36:35.755Z,8.3
2015-10-17T10:37:35.682Z,8.3
2015-10-17T10:38:35.610Z,8.4
2015-10-17T10:39:35.553Z,8.3
2015-10-17T10:40:35.487Z,8.3
2015-10-17T10:41:35.438Z,8.3
2015-10-17T10:42:35.375Z,8.3
2015-10-17T10:43:35.326Z,8.3
2015-10-17T10:44:35.277Z,8.3
2015-10-17T10:45:35.201Z,8.3
2015-10-17T10:46:35.155Z,8.2
2015-10-17T10:47:35.094Z,8.3
2015-10-17T10:48:35.032Z,8.3
2015-10-17T10:49:34.986Z,8.3
2015-10-17T10:50:34.926Z,8.3
2015-10-17T10:51:34.881Z,8.4
2015-10-17T10:52:34.820Z,8.3
2015-10-17T10:53:34.775Z,8.3
2015-10-17T10:54:34.715Z,8.3
2015-10-17T10:55:34.655Z,8.4
2015-10-17T10:56:34.612Z,8.4
2015-10-17T10:57:34.551Z,8.3
2015-10-17T10:58:34.492Z,8.3
2015-10-17T10:59:34.448Z,8.3
2015-10-17T11:00:34.385Z,8.2
2015-10-17T11:01:34.341Z,8.3
2015-10-17T11:02:34.281Z,8.2
2015-10-17T11:03:34.221Z,8.2
2015-10-17T11:04:34.177Z,8.2
2015-10-17T11:05:34.118Z,8.2
2015-10-17T11:06:34.074Z,8.3
2015-10-17T11:07:34.014Z,8.3
2015-10-17T11:08:33.970Z,8.3
2015-10-17T11:09:33.910Z,8.3
2015-10-17T11:10:33.850Z,8.3
2015-10-17T11:11:33.790Z,8.3
2015-10-17T11:12:33.746Z,8.3
2015-10-17T11:13:33.686Z,8.3
2015-10-17T11:14:33.642Z,8.2
2015-10-17T11:15:33.582Z,8.3
2015-10-17T11:16:33.523Z,8.3
2015-10-17T11:17:33.478Z,8.3
2015-10-17T11:18:33.419Z,8.2
2015-10-17T11:19:33.375Z,8.2
2015-10-17T11:20:33.315Z,8.2
2015-10-17T11:21:33.255Z,8.3
2015-10-17T11:22:33.211Z,8.3
2015-10-17T11:23:33.151Z,8.3
2015-10-17T11:24:33.107Z,8.2
2015-10-17T11:25:33.063Z,8.2
2015-10-17T11:26:32.987Z,8.2
2015-10-17T11:27:32.944Z,8.2
2015-10-17T11:28:32.883Z,8.3
2015-10-17T11:29:32.824Z,8.2
2015-10-17T11:30:32.810Z,8.2
2015-10-17T11:31:32.719Z,8.2
2015-10-17T11:32:32.675Z,8.3
2015-10-17T11:33:32.616Z,8.2
2015-10-17T11:34:32.556Z,8.2
2015-10-17T11:35:32.511Z,8.1
2015-10-17T11:36:32.858Z,8.1
2015-10-17T11:37:32.408Z,8.1
2015-10-17T11:38:32.348Z,8.2
2015-10-17T11:39:32.288Z,8.2
2015-10-17T11:40:32.244Z,8.2
2015-10-17T11:41:32.184Z,8.2
2015-10-17T11:42:32.124Z,8.2
2015-10-17T11:43:32.080Z,8.2
2015-10-17T11:44:32.021Z,8.2
2015-10-17T11:45:31.976Z,8.3
2015-10-17T11:46:31.916Z,8.3
2015-10-17T11:47:31.857Z,8.3
2015-10-17T11:48:31.797Z,8.3
2015-10-17T11:49:31.754Z,8.4
2015-10-17T11:50:31.694Z,8.3
2015-10-17T11:51:31.634Z,8.4
2015-10-17T11:52:31.590Z,8.4
2015-10-17T11:53:31.529Z,8.5
2015-10-17T11:54:31.470Z,8.5
2015-10-17T11:55:31.426Z,8.5
2015-10-17T11:56:31.366Z,8.4
2015-10-17T11:57:31.321Z,8.4
2015-10-17T11:58:31.262Z,8.4
2015-10-17T11:59:31.218Z,8.4
2015-10-17T12:00:31.158Z,8.4
2015-10-17T12:01:31.114Z,8.4
2015-10-17T12:02:31.054Z,8.4
2015-10-17T12:03:31.010Z,8.4
2015-10-17T12:04:30.951Z,8.4
2015-10-17T12:05:30.890Z,8.4
2015-10-17T12:06:30.846Z,8.4
2015-10-17T12:07:30.786Z,8.4
2015-10-17T12:08:30.727Z,8.4
2015-10-17T12:09:30.683Z,8.4
2015-10-17T12:10:30.623Z,8.5
2015-10-17T12:11:30.578Z,8.4
2015-10-17T12:12:30.519Z,8.4
2015-10-17T12:13:30.475Z,8.3
2015-10-17T12:14:30.415Z,8.4
2015-10-17T12:15:30.353Z,8.4
2015-10-17T12:16:30.308Z,8.4
2015-10-17T12:17:30.248Z,8.4
2015-10-17T12:18:30.205Z,8.3
2015-10-17T12:19:30.144Z,8.3
2015-10-17T12:20:30.085Z,8.3
2015-10-17T12:21:30.041Z,8.3
2015-10-17T12:22:29.980Z,8.3
2015-10-17T12:23:29.921Z,8.4
2015-10-17T12:24:29.877Z,8.4
2015-10-17T12:25:29.816Z,8.4
2015-10-17T12:26:29.772Z,8.4
2015-10-17T12:27:29.713Z,8.4
2015-10-17T12:28:29.652Z,8.4
2015-10-17T12:29:29.625Z,8.4
2015-10-17T12:30:29.550Z,8.4
2015-10-17T12:31:29.521Z,8.4
2015-10-17T12:32:29.446Z,8.5
2015-10-17T12:33:29.385Z,8.6
2015-10-17T12:34:29.341Z,8.6
2015-10-17T12:35:29.282Z,8.6
2015-10-17T12:36:29.237Z,8.7
2015-10-17T12:37:29.177Z,8.7
2015-10-17T12:38:29.118Z,8.7
2015-10-17T12:39:29.073Z,8.7
2015-10-17T12:40:29.014Z,8.7
2015-10-17T12:41:28.970Z,8.8
2015-10-17T12:42:28.910Z,8.8
2015-10-17T12:43:28.851Z,8.8
2015-10-17T12:44:28.806Z,8.9
2015-10-17T12:45:28.762Z,8.9
2015-10-17T12:46:28.702Z,8.9
2015-10-17T12:47:28.642Z,8.8
2015-10-17T12:48:28.598Z,8.8
2015-10-17T12:49:28.539Z,8.8
2015-10-17T12:50:28.495Z,8.8
2015-10-17T12:51:28.434Z,8.8
2015-10-17T12:52:28.375Z,8.8
2015-10-17T12:53:28.331Z,8.8
2015-10-17T12:54:28.270Z,8.7
2015-10-17T12:55:28.226Z,8.7
2015-10-17T12:56:28.167Z,8.7
2015-10-17T12:57:28.123Z,8.6
2015-10-17T12:58:28.063Z,8.7
2015-10-17T12:59:28.020Z,8.7
2015-10-17T13:00:27.959Z,8.6
2015-10-17T13:01:27.915Z,8.6
2015-10-17T13:02:27.855Z,8.6
2015-10-17T13:03:27.795Z,8.6
2015-10-17T13:04:27.750Z,8.5
2015-10-17T13:05:27.691Z,8.5
2015-10-17T13:06:27.632Z,8.5
2015-10-17T13:07:27.588Z,8.6
2015-10-17T13:08:27.527Z,8.6
2015-10-17T13:09:27.468Z,8.7
2015-10-17T13:10:27.424Z,8.7
2015-10-17T13:11:27.363Z,8.6
2015-10-17T13:12:27.319Z,8.7
2015-10-17T13:13:27.261Z,8.7
2015-10-17T13:14:27.216Z,8.7
2015-10-17T13:15:27.156Z,8.7
2015-10-17T13:16:27.112Z,8.7
2015-10-17T13:17:27.052Z,8.7
2015-10-17T13:18:26.992Z,8.7
2015-10-17T13:19:26.949Z,8.7
2015-10-17T13:20:26.889Z,8.7
2015-10-17T13:21:26.844Z,8.7
2015-10-17T13:22:26.785Z,8.7
2015-10-17T13:23:26.725Z,8.7
2015-10-17T13:24:26.680Z,8.7
2015-10-17T13:25:26.621Z,8.7
2015-10-17T13:26:26.577Z,8.7
2015-10-17T13:27:26.517Z,8.8
2015-10-17T13:28:26.473Z,8.9
2015-10-17T13:29:26.412Z,9
2015-10-17T13:30:26.369Z,9.1
2015-10-17T13:31:26.309Z,9.1
2015-10-17T13:32:26.248Z,9.1
2015-10-17T13:33:26.204Z,9.2
2015-10-17T13:34:26.161Z,9.2
2015-10-17T13:35:26.085Z,9.3
2015-10-17T13:36:26.042Z,9.4
2015-10-17T13:37:25.997Z,9.4
2015-10-17T13:38:25.937Z,9.6
2015-10-17T13:39:25.877Z,9.7
2015-10-17T13:40:25.833Z,9.5
2015-10-17T13:41:25.773Z,9.5
2015-10-17T13:42:25.714Z,9.4
2015-10-17T13:43:25.670Z,9.3
2015-10-17T13:44:25.609Z,9.1
2015-10-17T13:45:25.565Z,9.1
2015-10-17T13:46:25.521Z,9
2015-10-17T13:47:25.461Z,9.1
2015-10-17T13:48:25.402Z,9
2015-10-17T13:49:25.358Z,9
2015-10-17T13:50:25.280Z,9
2015-10-17T13:51:25.236Z,9.1
2015-10-17T13:52:25.191Z,9.1
2015-10-17T13:53:25.131Z,9.2
2015-10-17T13:54:25.071Z,9.2
2015-10-17T13:55:25.027Z,9.2